Time;durP1;ratioP1;P1;durP2;ratioP2;P2;SDS_P1;SDS_P2;PMS_P1;PMS_P2;Temp;Humidity;BMP_temperature;BMP_pressure;BME280_temperature;BME280_humidity;BME280_pressure;Samples;Min_cycle;Max_cycle;Signal;HPM_P1;HPM_P2
2022/08/16 00:01:26;;;;;;;22.95;19.55;;;20.00;99.90;;;;;;5003663;28;20066;-66
2022/08/16 00:03:52;;;;;;;20.83;18.48;;;20.10;99.90;;;;;;5002657;28;20061;-66
2022/08/16 00:06:19;;;;;;;22.83;20.50;;;20.10;99.90;;;;;;4996796;28;20632;-66
2022/08/16 00:08:45;;;;;;;24.42;21.33;;;20.10;99.90;;;;;;5001987;28;20054;-66
2022/08/16 00:11:11;;;;;;;21.92;19.67;;;20.00;99.90;;;;;;5006421;28;20076;-66
2022/08/16 00:13:37;;;;;;;22.40;19.58;;;20.00;99.90;;;;;;5006648;28;20038;-66
2022/08/16 00:16:04;;;;;;;24.02;21.52;;;20.00;99.90;;;;;;5005091;28;20052;-66
2022/08/16 00:18:30;;;;;;;23.33;20.50;;;20.00;99.90;;;;;;4988306;28;20049;-65
2022/08/16 00:20:56;;;;;;;22.90;20.38;;;20.00;99.90;;;;;;5006675;28;20054;-66
2022/08/16 00:23:22;;;;;;;23.75;20.70;;;20.00;99.90;;;;;;5004906;28;20053;-66
2022/08/16 00:25:47;;;;;;;23.85;18.83;;;20.00;99.90;;;;;;5006596;28;20038;-66
2022/08/16 00:28:13;;;;;;;23.00;19.00;;;20.00;99.90;;;;;;4990807;28;20099;-66
2022/08/16 00:30:39;;;;;;;24.80;21.08;;;20.00;99.90;;;;;;5003599;28;20406;-66
2022/08/16 00:33:06;;;;;;;23.73;20.52;;;20.00;99.90;;;;;;5001049;28;20077;-65
2022/08/16 00:35:34;;;;;;;23.00;20.52;;;20.00;99.90;;;;;;5007257;28;20132;-66
2022/08/16 00:38:02;;;;;;;21.85;19.55;;;19.90;99.90;;;;;;5004428;28;20574;-66
2022/08/16 00:40:44;;;;;;;21.30;19.20;;;19.90;99.90;;;;;;5007486;28;20102;-66
2022/08/16 00:43:16;;;;;;;25.58;21.95;;;19.90;99.90;;;;;;5024161;28;20103;-65
2022/08/16 00:45:59;;;;;;;24.42;21.02;;;19.90;99.90;;;;;;5026416;28;20041;-66
2022/08/16 00:48:26;;;;;;;22.05;19.85;;;19.90;99.90;;;;;;5008846;28;20512;-66
2022/08/16 00:50:51;;;;;;;23.30;20.25;;;19.80;99.90;;;;;;5025006;28;20132;-66
2022/08/16 00:53:17;;;;;;;22.60;20.08;;;19.80;99.90;;;;;;5019705;28;20158;-66
2022/08/16 00:55:53;;;;;;;23.77;20.20;;;19.80;99.90;;;;;;5025412;28;20056;-66
2022/08/16 00:58:20;;;;;;;22.75;20.40;;;19.80;99.90;;;;;;5008270;28;20521;-66
2022/08/16 01:00:48;;;;;;;23.25;20.80;;;19.70;99.90;;;;;;5022156;28;20041;-66
2022/08/16 01:03:16;;;;;;;24.02;21.50;;;19.80;99.90;;;;;;5004260;28;20501;-66
2022/08/16 01:05:42;;;;;;;24.33;21.05;;;19.80;99.90;;;;;;5021356;28;20037;-66
2022/08/16 01:08:10;;;;;;;25.60;23.05;;;19.80;99.90;;;;;;5007006;28;20500;-66
2022/08/16 01:10:36;;;;;;;25.98;22.42;;;19.80;99.90;;;;;;5005728;28;20131;-66
2022/08/16 01:13:10;;;;;;;25.50;22.88;;;19.80;99.90;;;;;;5001257;28;20524;-66
2022/08/16 01:15:41;;;;;;;26.08;23.38;;;19.70;99.90;;;;;;5006244;28;20049;-66
2022/08/16 01:18:08;;;;;;;;;;;19.70;99.90;;;;;;5005108;28;20053;-66
2022/08/16 01:20:42;;;;;;;23.50;21.00;;;19.70;99.90;;;;;;5004028;28;20380;-66
2022/08/16 01:23:21;;;;;;;31.23;21.85;;;19.70;99.90;;;;;;5001105;28;20791;-66
2022/08/16 01:25:51;;;;;;;25.35;22.27;;;19.70;99.90;;;;;;5019503;28;20056;-66
2022/08/16 01:28:19;;;;;;;25.80;22.92;;;19.60;99.90;;;;;;5005607;28;20060;-66
2022/08/16 01:30:49;;;;;;;23.88;21.02;;;19.60;99.90;;;;;;5019594;28;20048;-66
2022/08/16 01:33:16;;;;;;;23.67;21.15;;;19.60;99.90;;;;;;5005029;28;20104;-66
2022/08/16 01:35:50;;;;;;;27.75;22.45;;;19.60;99.90;;;;;;5007942;28;20049;-66
2022/08/16 01:38:27;;;;;;;27.10;22.23;;;19.60;99.90;;;;;;5005772;28;20061;-66
2022/08/16 01:40:58;;;;;;;23.10;20.65;;;19.60;99.90;;;;;;5022929;28;20080;-66
2022/08/16 01:43:24;;;;;;;25.20;20.65;;;19.60;99.90;;;;;;5021278;28;20041;-66
2022/08/16 01:45:58;;;;;;;23.45;20.75;;;19.60;99.90;;;;;;5003732;28;20129;-66
2022/08/16 01:48:27;;;;;;;23.63;19.88;;;19.60;99.90;;;;;;5006662;28;20044;-65
2022/08/16 01:50:54;;;;;;;24.80;19.15;;;19.70;99.90;;;;;;5006034;28;20053;-66
2022/08/16 01:53:20;;;;;;;21.73;18.02;;;19.70;99.90;;;;;;5005448;28;20030;-66
2022/08/16 01:55:45;;;;;;;21.30;18.35;;;19.60;99.90;;;;;;5002630;28;20061;-66
2022/08/16 01:58:14;;;;;;;23.63;20.77;;;19.60;99.90;;;;;;4992226;28;20057;-66
2022/08/16 02:00:40;;;;;;;25.27;22.58;;;19.60;99.90;;;;;;5025678;28;20037;-66
2022/08/16 02:03:06;;;;;;;23.05;20.48;;;19.60;99.90;;;;;;5021455;28;20045;-66
2022/08/16 02:05:32;;;;;;;23.50;20.58;;;19.60;99.90;;;;;;5025360;28;20614;-66
2022/08/16 02:07:58;;;;;;;21.92;19.63;;;19.60;99.90;;;;;;4992104;28;20056;-66
2022/08/16 02:10:24;;;;;;;23.27;19.02;;;19.60;99.90;;;;;;5006105;28;20045;-66
2022/08/16 02:12:50;;;;;;;24.08;19.48;;;19.60;99.90;;;;;;4990826;28;20072;-66
2022/08/16 02:15:19;;;;;;;21.02;18.30;;;19.50;99.90;;;;;;5024443;28;20068;-65
2022/08/16 02:17:44;;;;;;;20.38;18.20;;;19.50;99.90;;;;;;5007988;28;20041;-66
2022/08/16 02:20:11;;;;;;;21.17;18.77;;;19.50;99.90;;;;;;5022973;28;20068;-66
2022/08/16 02:22:36;;;;;;;20.92;18.73;;;19.50;99.90;;;;;;5025335;28;20046;-66
2022/08/16 02:25:13;;;;;;;27.08;21.52;;;19.40;99.90;;;;;;4987767;28;20056;-66
2022/08/16 02:27:40;;;;;;;23.70;19.55;;;19.40;99.90;;;;;;5006805;28;20045;-65
2022/08/16 02:30:13;;;;;;;19.58;17.50;;;19.40;99.90;;;;;;5002985;28;20053;-66
2022/08/16 02:32:39;;;;;;;20.60;17.10;;;19.40;99.90;;;;;;5003175;28;20129;-66
2022/08/16 02:35:05;;;;;;;23.02;17.13;;;19.50;99.90;;;;;;4999234;28;20733;-66
2022/08/16 02:37:31;;;;;;;21.83;19.10;;;19.40;99.90;;;;;;4999467;28;20761;-66
2022/08/16 02:39:56;;;;;;;21.95;19.83;;;19.50;99.90;;;;;;5025706;28;20068;-66
2022/08/16 02:42:22;;;;;;;23.13;19.70;;;19.50;99.90;;;;;;5023801;28;20049;-66
2022/08/16 02:44:48;;;;;;;21.80;19.45;;;19.50;99.90;;;;;;5007325;28;20133;-66
2022/08/16 02:47:14;;;;;;;24.50;20.90;;;19.50;99.90;;;;;;4992516;28;20152;-66
2022/08/16 02:49:39;;;;;;;23.80;21.20;;;19.50;99.90;;;;;;5024063;28;20038;-66
2022/08/16 02:52:06;;;;;;;23.00;20.05;;;19.50;99.90;;;;;;5022969;28;20049;-66
2022/08/16 02:54:32;;;;;;;23.13;20.42;;;19.50;99.90;;;;;;5024075;28;20053;-66
2022/08/16 02:56:57;;;;;;;23.55;21.05;;;19.50;99.90;;;;;;5008644;28;20103;-66
2022/08/16 02:59:23;;;;;;;24.40;21.00;;;19.50;99.90;;;;;;5025566;28;20556;-66
2022/08/16 03:01:49;;;;;;;24.00;21.50;;;19.50;99.90;;;;;;5025217;28;20445;-66
2022/08/16 03:04:14;;;;;;;24.75;22.10;;;19.50;99.90;;;;;;5024827;28;20405;-66
2022/08/16 03:06:40;;;;;;;24.50;21.45;;;19.50;99.90;;;;;;4993048;28;20489;-66
2022/08/16 03:09:06;;;;;;;24.63;21.92;;;19.50;99.90;;;;;;5022303;28;20140;-66
2022/08/16 03:11:32;;;;;;;23.55;21.25;;;19.50;99.90;;;;;;5026507;28;20060;-66
2022/08/16 03:13:58;;;;;;;25.10;22.50;;;19.40;99.90;;;;;;5001180;28;20045;-66
2022/08/16 03:16:25;;;;;;;25.92;22.52;;;19.40;99.90;;;;;;4995462;28;20542;-66
2022/08/16 03:18:50;;;;;;;24.65;22.17;;;19.40;99.90;;;;;;5018694;28;20042;-66
2022/08/16 03:21:16;;;;;;;26.20;23.42;;;19.40;99.90;;;;;;5021626;28;20048;-66
2022/08/16 03:23:42;;;;;;;26.92;22.77;;;19.40;99.90;;;;;;5023912;28;20056;-66
2022/08/16 03:26:08;;;;;;;24.38;21.80;;;19.30;99.90;;;;;;5007092;28;20057;-66
2022/08/16 03:28:34;;;;;;;27.67;22.70;;;19.30;99.90;;;;;;4979129;28;20049;-66
2022/08/16 03:31:00;;;;;;;29.83;23.02;;;19.30;99.90;;;;;;5023093;28;20455;-66
2022/08/16 03:33:25;;;;;;;25.90;22.73;;;19.30;99.90;;;;;;5027486;28;20033;-66
2022/08/16 03:35:52;;;;;;;27.88;22.60;;;19.30;99.90;;;;;;5022301;28;20393;-66
2022/08/16 03:42:12;;;;;;;26.13;22.23;;;19.20;99.90;;;;;;5021008;28;20087;-66
2022/08/16 03:44:37;;;;;;;26.73;22.20;;;19.20;99.90;;;;;;5025166;28;20049;-66
2022/08/16 03:47:03;;;;;;;28.35;23.25;;;19.20;99.90;;;;;;4995341;28;20063;-66
2022/08/16 03:49:29;;;;;;;24.75;22.15;;;19.10;99.90;;;;;;5009964;28;20133;-65
2022/08/16 03:51:55;;;;;;;25.00;22.35;;;19.10;99.90;;;;;;5014426;28;20049;-66
2022/08/16 03:54:21;;;;;;;25.23;22.63;;;19.10;99.90;;;;;;5011746;28;20067;-66
2022/08/16 03:56:47;;;;;;;24.50;21.85;;;19.10;99.90;;;;;;5015343;28;20091;-66
2022/08/16 03:59:13;;;;;;;26.00;23.15;;;19.00;99.90;;;;;;5033847;28;20045;-66
2022/08/16 04:01:38;;;;;;;27.42;24.48;;;19.00;99.90;;;;;;5028323;28;20080;-66
2022/08/16 04:04:04;;;;;;;26.92;23.65;;;19.00;99.90;;;;;;5028010;28;20075;-65
2022/08/16 04:06:30;;;;;;;29.50;23.95;;;18.90;99.90;;;;;;5024979;28;20405;-66
2022/08/16 04:08:55;;;;;;;26.95;24.05;;;18.90;99.90;;;;;;5015480;28;20052;-66
2022/08/16 04:11:21;;;;;;;30.60;25.13;;;18.80;99.90;;;;;;5011903;28;20109;-66
2022/08/16 04:13:47;;;;;;;27.33;24.42;;;18.70;99.90;;;;;;5007572;28;20049;-66
2022/08/16 04:16:16;;;;;;;27.20;23.92;;;18.70;99.90;;;;;;5000097;28;20056;-66
2022/08/16 04:18:43;;;;;;;27.80;24.25;;;18.60;99.90;;;;;;5003116;28;20121;-66
2022/08/16 04:21:09;;;;;;;28.10;24.17;;;18.60;99.90;;;;;;5007065;28;20058;-65
2022/08/16 04:23:36;;;;;;;27.58;24.35;;;18.60;99.90;;;;;;5007947;28;20080;-66
2022/08/16 04:26:03;;;;;;;29.00;24.48;;;18.60;99.90;;;;;;5006780;28;20091;-66
2022/08/16 04:28:28;;;;;;;29.85;24.95;;;18.50;99.90;;;;;;4989397;28;20046;-65
2022/08/16 04:30:54;;;;;;;32.92;25.25;;;18.60;99.90;;;;;;5011400;28;20654;-65
2022/08/16 04:33:20;;;;;;;29.85;25.65;;;18.60;99.90;;;;;;5006418;28;20458;-66
2022/08/16 04:35:46;;;;;;;28.33;25.23;;;18.50;99.90;;;;;;5014827;28;20042;-66
2022/08/16 04:38:11;;;;;;;31.73;26.17;;;18.50;99.90;;;;;;5011778;28;20611;-65
2022/08/16 04:40:37;;;;;;;30.67;26.15;;;18.50;99.90;;;;;;5026956;28;20042;-66
2022/08/16 04:43:03;;;;;;;30.88;26.77;;;18.60;99.90;;;;;;5007076;28;20420;-66
2022/08/16 04:45:29;;;;;;;28.65;25.63;;;18.60;99.90;;;;;;5017692;28;20107;-66
2022/08/16 04:47:54;;;;;;;28.58;25.42;;;18.60;99.90;;;;;;5006384;28;20050;-66
2022/08/16 04:50:22;;;;;;;30.75;25.35;;;18.60;99.90;;;;;;5031051;28;20103;-66
2022/08/16 04:52:50;;;;;;;30.48;25.65;;;18.60;99.90;;;;;;5024168;28;20049;-66
2022/08/16 04:55:22;;;;;;;30.10;25.77;;;18.50;99.90;;;;;;5030875;28;20396;-66
2022/08/16 04:57:50;;;;;;;33.20;26.40;;;18.60;99.90;;;;;;5011723;28;20111;-65
2022/08/16 05:00:21;;;;;;;30.52;25.98;;;18.60;99.90;;;;;;5028802;28;20045;-66
2022/08/16 05:02:51;;;;;;;;;;;18.60;99.90;;;;;;5005927;28;20099;-66
2022/08/16 05:05:16;;;;;;;28.98;25.88;;;18.60;99.90;;;;;;5012204;28;20013;-65
2022/08/16 05:07:42;;;;;;;29.70;26.38;;;18.60;99.90;;;;;;4990384;28;20179;-65
2022/08/16 05:10:08;;;;;;;29.00;25.58;;;18.60;99.90;;;;;;5010141;28;20060;-65
2022/08/16 05:12:35;;;;;;;28.58;25.45;;;18.70;99.90;;;;;;5025824;28;20117;-66
2022/08/16 05:15:02;;;;;;;29.35;25.45;;;18.70;99.90;;;;;;4992501;28;20041;-65
2022/08/16 05:17:28;;;;;;;27.13;23.75;;;18.70;99.90;;;;;;5001441;28;20562;-66
2022/08/16 05:19:54;;;;;;;29.48;25.88;;;18.70;99.90;;;;;;5042009;28;20052;-66
2022/08/16 05:22:19;;;;;;;31.20;25.35;;;18.70;99.90;;;;;;5035961;28;20053;-66
2022/08/16 05:24:45;;;;;;;30.15;25.35;;;18.70;99.90;;;;;;5035780;28;20092;-65
2022/08/16 05:27:11;;;;;;;29.23;24.90;;;18.70;99.90;;;;;;5002203;28;20045;-65
2022/08/16 05:29:37;;;;;;;28.67;24.48;;;18.80;99.90;;;;;;4996280;28;20042;-66
2022/08/16 05:32:04;;;;;;;28.92;24.60;;;18.80;99.90;;;;;;5026858;28;20709;-66
2022/08/16 05:34:30;;;;;;;28.75;23.88;;;18.90;99.90;;;;;;5036646;28;20095;-65
2022/08/16 05:36:56;;;;;;;29.65;24.75;;;18.90;99.90;;;;;;5019019;28;20508;-66
2022/08/16 05:39:23;;;;;;;29.52;25.02;;;18.90;99.90;;;;;;5036491;28;20135;-66
2022/08/16 05:41:50;;;;;;;26.42;23.48;;;19.00;99.90;;;;;;5020181;28;20041;-66
2022/08/16 05:44:16;;;;;;;27.48;23.15;;;19.10;99.90;;;;;;5027797;28;20045;-66
2022/08/16 05:46:44;;;;;;;28.15;23.08;;;19.20;99.90;;;;;;5023095;28;20041;-66
2022/08/16 05:49:15;;;;;;;25.63;22.40;;;19.30;99.90;;;;;;5038257;28;20099;-66
2022/08/16 05:51:42;;;;;;;25.90;23.08;;;19.40;99.90;;;;;;5023571;28;20057;-66
2022/08/16 05:54:10;;;;;;;25.17;22.48;;;19.50;99.90;;;;;;5029504;28;20059;-66
2022/08/16 05:56:35;;;;;;;25.40;21.63;;;19.60;99.90;;;;;;5020482;28;20506;-67
2022/08/16 05:59:01;;;;;;;23.77;20.38;;;19.70;99.90;;;;;;5009219;28;20571;-66
2022/08/16 06:01:27;;;;;;;29.10;21.38;;;19.80;99.90;;;;;;5035012;28;20075;-66
2022/08/16 06:03:52;;;;;;;22.50;20.10;;;19.90;99.90;;;;;;5028593;28;20559;-66
2022/08/16 06:06:18;;;;;;;24.92;20.95;;;19.90;99.90;;;;;;4994999;28;20144;-67
2022/08/16 06:08:44;;;;;;;27.08;20.58;;;20.00;99.90;;;;;;5018859;28;20482;-66
2022/08/16 06:11:09;;;;;;;24.52;19.73;;;20.10;99.90;;;;;;5008359;28;20049;-67
2022/08/16 06:13:36;;;;;;;24.17;20.25;;;20.10;99.90;;;;;;5010408;28;20049;-67
2022/08/16 06:16:05;;;;;;;24.75;19.85;;;20.20;99.90;;;;;;5030279;28;20049;-67
2022/08/16 06:18:32;;;;;;;21.38;18.95;;;20.20;99.90;;;;;;5015415;28;20053;-67
2022/08/16 06:20:58;;;;;;;23.65;19.80;;;20.30;99.90;;;;;;4997057;28;20041;-67
2022/08/16 06:23:25;;;;;;;24.90;19.63;;;20.30;99.90;;;;;;5027968;28;20049;-67
2022/08/16 06:25:51;;;;;;;26.42;19.70;;;20.30;99.90;;;;;;5010963;28;20029;-68
2022/08/16 06:28:18;;;;;;;23.17;19.73;;;20.30;99.90;;;;;;5015690;28;20041;-65
2022/08/16 06:30:44;;;;;;;22.98;20.42;;;20.30;99.90;;;;;;5027657;28;20496;-65
2022/08/16 06:33:14;;;;;;;26.75;21.13;;;20.30;99.90;;;;;;5030605;28;20056;-65
2022/08/16 06:35:40;;;;;;;24.92;21.13;;;20.40;99.90;;;;;;5030272;28;20123;-65
2022/08/16 06:38:06;;;;;;;25.88;20.65;;;20.50;99.90;;;;;;5013653;28;20252;-65
2022/08/16 06:40:32;;;;;;;24.67;20.33;;;20.50;99.90;;;;;;5028845;28;20045;-65
2022/08/16 06:42:58;;;;;;;27.05;20.77;;;20.50;99.90;;;;;;5028711;28;20421;-65
2022/08/16 06:45:24;;;;;;;27.23;19.85;;;20.50;99.90;;;;;;5029958;28;20029;-66
2022/08/16 06:47:50;;;;;;;25.42;20.15;;;20.60;99.90;;;;;;5013026;28;20436;-65
2022/08/16 06:50:16;;;;;;;26.38;21.05;;;20.60;99.90;;;;;;5014909;28;20488;-65
2022/08/16 06:52:42;;;;;;;23.10;20.65;;;20.60;99.90;;;;;;5007390;28;20050;-66
2022/08/16 06:55:09;;;;;;;25.00;20.45;;;20.70;99.90;;;;;;5030800;28;20060;-65
2022/08/16 06:57:35;;;;;;;26.90;21.70;;;20.70;99.90;;;;;;4991562;28;20547;-65
2022/08/16 07:00:10;;;;;;;26.20;22.10;;;20.70;99.90;;;;;;5004875;28;20046;-65
2022/08/16 07:02:36;;;;;;;24.92;21.98;;;20.80;99.90;;;;;;5007730;28;20045;-65
2022/08/16 07:05:03;;;;;;;28.27;21.40;;;20.80;99.90;;;;;;5009181;28;20068;-66
2022/08/16 07:07:28;;;;;;;31.33;22.05;;;20.90;99.90;;;;;;4988944;28;20455;-66
2022/08/16 07:09:54;;;;;;;27.17;22.15;;;21.00;99.90;;;;;;4980051;28;20141;-66
2022/08/16 07:12:20;;;;;;;24.35;20.90;;;21.00;99.90;;;;;;5007082;28;20136;-66
2022/08/16 07:14:48;;;;;;;25.10;22.38;;;21.10;99.90;;;;;;5007235;28;20038;-65
2022/08/16 07:17:14;;;;;;;23.17;20.65;;;21.20;99.90;;;;;;5019606;28;20055;-65
2022/08/16 07:19:40;;;;;;;25.73;22.58;;;21.20;99.90;;;;;;5020628;28;20469;-66
2022/08/16 07:22:05;;;;;;;27.65;22.33;;;21.30;99.90;;;;;;5035051;28;20038;-66
2022/08/16 07:24:31;;;;;;;24.08;21.25;;;21.30;99.90;;;;;;5032644;28;20552;-65
2022/08/16 07:26:58;;;;;;;24.15;21.52;;;21.30;99.90;;;;;;5003511;28;20137;-66
2022/08/16 07:29:24;;;;;;;27.33;21.38;;;21.40;99.90;;;;;;4999583;28;20037;-66
2022/08/16 07:31:50;;;;;;;22.52;20.10;;;21.40;99.90;;;;;;5021738;28;20492;-66
2022/08/16 07:34:17;;;;;;;26.83;21.35;;;21.50;99.90;;;;;;5036598;28;20053;-65
2022/08/16 07:36:44;;;;;;;27.60;22.08;;;21.60;99.90;;;;;;4982651;28;20063;-66
2022/08/16 07:39:11;;;;;;;23.95;20.55;;;21.70;99.90;;;;;;5006244;28;20061;-66
2022/08/16 07:41:37;;;;;;;22.33;19.65;;;21.60;99.90;;;;;;5004857;28;20110;-66
2022/08/16 07:44:03;;;;;;;26.08;21.38;;;21.80;99.90;;;;;;5005279;28;20068;-66
2022/08/16 07:46:30;;;;;;;23.83;20.30;;;21.80;99.90;;;;;;4997901;28;20532;-67
2022/08/16 07:48:56;;;;;;;23.90;21.33;;;21.80;99.90;;;;;;4990448;28;20057;-66
2022/08/16 07:51:21;;;;;;;25.05;21.05;;;21.80;99.90;;;;;;4992440;28;20408;-66
2022/08/16 07:53:50;;;;;;;28.45;21.35;;;22.00;99.90;;;;;;5008363;28;20045;-65
2022/08/16 07:56:17;;;;;;;24.90;19.70;;;21.90;99.90;;;;;;4996579;28;20053;-65
2022/08/16 07:58:43;;;;;;;24.50;20.70;;;21.90;99.90;;;;;;5004734;28;20056;-66
2022/08/16 08:01:10;;;;;;;27.27;22.52;;;22.00;99.90;;;;;;4990446;28;20053;-66
2022/08/16 08:03:36;;;;;;;23.77;19.85;;;22.10;99.90;;;;;;5005568;28;20144;-66
2022/08/16 08:06:02;;;;;;;24.00;20.55;;;22.20;99.90;;;;;;4989652;28;20064;-66
2022/08/16 08:08:28;;;;;;;23.17;18.83;;;22.20;99.90;;;;;;4991639;28;21551;-66
2022/08/16 08:10:54;;;;;;;26.35;19.30;;;22.30;99.90;;;;;;5007302;28;20506;-66
2022/08/16 08:13:20;;;;;;;18.85;16.70;;;22.40;99.90;;;;;;4973066;28;20070;-66
2022/08/16 08:15:46;;;;;;;24.35;18.30;;;22.50;99.90;;;;;;4989800;28;20052;-66
2022/08/16 08:18:13;;;;;;;20.35;16.88;;;22.60;99.90;;;;;;4990426;28;20049;-66
2022/08/16 08:20:44;;;;;;;19.92;17.90;;;22.70;99.90;;;;;;4972771;28;20132;-66
2022/08/16 08:23:12;;;;;;;21.85;17.80;;;22.80;99.90;;;;;;4991054;28;20428;-66
2022/08/16 08:25:39;;;;;;;18.42;16.35;;;22.90;99.90;;;;;;4988387;28;20079;-66
2022/08/16 08:28:05;;;;;;;16.88;14.73;;;22.90;99.90;;;;;;4991315;28;20049;-66
2022/08/16 08:30:31;;;;;;;18.65;15.10;;;23.00;99.90;;;;;;5008459;28;20053;-66
2022/08/16 08:32:57;;;;;;;19.00;15.45;;;23.10;99.90;;;;;;4989925;28;20049;-65
2022/08/16 08:35:23;;;;;;;21.52;14.00;;;23.20;99.90;;;;;;4990225;28;20061;-66
2022/08/16 08:37:49;;;;;;;17.27;15.00;;;23.20;99.90;;;;;;4973439;28;20062;-66
2022/08/16 08:40:15;;;;;;;16.35;14.52;;;23.20;99.90;;;;;;4989891;28;20140;-66
2022/08/16 08:42:42;;;;;;;18.00;15.18;;;23.30;99.90;;;;;;5008003;28;20522;-66
2022/08/16 08:45:09;;;;;;;20.30;15.77;;;23.40;99.90;;;;;;4991326;28;20053;-66
2022/08/16 08:47:35;;;;;;;19.00;15.95;;;23.50;99.90;;;;;;4992783;28;20068;-66
2022/08/16 08:50:02;;;;;;;17.35;15.45;;;23.60;99.90;;;;;;5008265;28;20812;-66
2022/08/16 08:52:28;;;;;;;15.82;14.00;;;23.60;99.90;;;;;;4988575;28;20106;-66
2022/08/16 08:54:54;;;;;;;19.73;14.18;;;23.60;99.90;;;;;;5009210;28;20747;-66
2022/08/16 08:57:20;;;;;;;18.83;13.57;;;23.70;99.90;;;;;;4956721;28;20053;-67
2022/08/16 08:59:46;;;;;;;14.80;13.18;;;23.90;99.90;;;;;;4989034;28;20084;-66
2022/08/16 09:02:13;;;;;;;16.05;14.23;;;24.10;99.90;;;;;;4972354;28;20203;-68
2022/08/16 09:04:39;;;;;;;15.25;9.90;;;24.10;99.90;;;;;;5009803;28;20051;-67
2022/08/16 09:07:05;;;;;;;13.23;9.10;;;24.20;99.90;;;;;;4991816;28;20057;-67
2022/08/16 09:09:31;;;;;;;10.73;9.60;;;24.10;99.90;;;;;;5010033;28;20096;-67
2022/08/16 09:11:57;;;;;;;13.30;8.65;;;24.30;99.90;;;;;;5007714;28;20053;-66
2022/08/16 09:14:23;;;;;;;10.02;8.77;;;24.40;99.90;;;;;;4984367;28;20054;-66
2022/08/16 09:16:50;;;;;;;11.95;9.43;;;24.30;99.90;;;;;;4973023;28;20551;-67
2022/08/16 09:19:16;;;;;;;11.77;9.57;;;24.40;99.90;;;;;;4986873;28;20068;-66
2022/08/16 09:21:42;;;;;;;15.25;12.38;;;24.50;99.90;;;;;;4986407;28;20062;-67
2022/08/16 09:24:08;;;;;;;14.85;10.70;;;24.60;99.90;;;;;;4985908;28;20559;-67
2022/08/16 09:26:34;;;;;;;14.68;12.10;;;24.60;99.90;;;;;;4958789;28;20057;-68
2022/08/16 09:29:00;;;;;;;14.52;12.93;;;24.60;99.90;;;;;;4985952;28;20057;-66
2022/08/16 09:31:25;;;;;;;13.40;12.00;;;24.60;99.90;;;;;;4985052;28;20481;-66
2022/08/16 09:33:54;;;;;;;15.10;13.15;;;24.60;99.90;;;;;;4986187;28;20052;-66
2022/08/16 09:36:20;;;;;;;16.48;12.68;;;24.80;99.90;;;;;;4974928;28;20449;-66
2022/08/16 09:38:45;;;;;;;13.30;11.25;;;24.90;99.90;;;;;;5002364;28;20064;-67
2022/08/16 09:41:12;;;;;;;15.13;13.30;;;24.90;99.90;;;;;;5006468;28;20114;-68
2022/08/16 09:43:38;;;;;;;14.43;11.30;;;24.80;99.90;;;;;;4985637;28;20057;-67
2022/08/16 09:46:06;;;;;;;14.65;11.90;;;24.90;99.90;;;;;;5005127;28;20174;-67
2022/08/16 09:48:35;;;;;;;15.02;11.38;;;24.90;99.90;;;;;;4994198;28;20099;-66
2022/08/16 09:51:00;;;;;;;19.85;14.23;;;25.10;99.90;;;;;;5007571;28;20041;-67
2022/08/16 09:53:28;;;;;;;14.88;12.35;;;25.30;99.90;;;;;;5006453;28;20609;-67
2022/08/16 09:55:57;;;;;;;18.23;12.48;;;25.30;99.90;;;;;;4987461;28;20111;-68
2022/08/16 09:58:25;;;;;;;12.93;11.57;;;25.20;99.90;;;;;;4973388;28;20624;-67
2022/08/16 10:00:53;;;;;;;15.98;13.65;;;25.20;99.90;;;;;;5005755;28;21539;-67
2022/08/16 10:03:19;;;;;;;12.95;11.13;;;25.40;99.90;;;;;;4977574;28;20108;-67
2022/08/16 10:05:46;;;;;;;14.15;10.65;;;25.40;99.90;;;;;;4988179;28;20049;-67
2022/08/16 10:08:11;;;;;;;16.45;12.80;;;25.40;99.90;;;;;;4973418;28;20551;-68
2022/08/16 10:10:40;;;;;;;13.40;11.00;;;25.40;99.90;;;;;;4987520;28;20088;-67
2022/08/16 10:13:13;;;;;;;12.48;10.00;;;25.40;99.90;;;;;;4995986;28;20143;-68
2022/08/16 10:15:45;;;;;;;15.00;9.93;;;25.60;99.90;;;;;;5007456;28;20430;-67
2022/08/16 10:18:13;;;;;;;14.63;9.65;;;25.50;99.90;;;;;;4991419;28;20106;-67
2022/08/16 10:20:42;;;;;;;12.98;11.02;;;25.50;99.90;;;;;;5005706;28;20049;-67
2022/08/16 10:23:12;;;;;;;12.90;11.60;;;25.90;99.90;;;;;;5006330;28;20494;-67
2022/08/16 10:25:40;;;;;;;14.85;11.05;;;25.70;99.90;;;;;;4973363;28;20147;-66
2022/08/16 10:28:07;;;;;;;11.40;8.50;;;26.00;99.90;;;;;;4972549;28;20057;-66
2022/08/16 10:30:34;;;;;;;13.93;9.90;;;26.00;99.90;;;;;;5005845;28;20520;-67
2022/08/16 10:32:59;;;;;;;14.27;11.45;;;26.10;99.90;;;;;;5002533;28;20064;-69
2022/08/16 10:35:25;;;;;;;12.73;10.13;;;26.20;99.90;;;;;;5004624;28;20045;-67
2022/08/16 10:37:51;;;;;;;13.32;8.90;;;26.20;99.90;;;;;;4987700;28;20053;-68
2022/08/16 10:40:18;;;;;;;12.38;8.35;;;26.30;99.90;;;;;;4986744;28;20064;-67
2022/08/16 10:42:44;;;;;;;11.70;9.40;;;26.10;99.90;;;;;;4970590;28;20788;-67
2022/08/16 10:45:10;;;;;;;11.98;9.77;;;26.10;99.90;;;;;;5006900;28;20057;-67
2022/08/16 10:47:37;;;;;;;13.73;7.95;;;25.90;99.90;;;;;;4971974;28;20042;-67
2022/08/16 10:50:05;;;;;;;10.75;7.55;;;26.00;99.90;;;;;;5003029;28;20050;-67
2022/08/16 10:52:32;;;;;;;10.25;7.88;;;26.10;99.90;;;;;;4970962;28;20041;-67
2022/08/16 10:54:59;;;;;;;9.73;7.40;;;26.10;99.90;;;;;;4986819;28;20053;-68
2022/08/16 10:57:26;;;;;;;12.15;8.45;;;26.30;99.90;;;;;;4989667;28;20156;-68
2022/08/16 10:59:52;;;;;;;12.10;9.40;;;26.20;99.90;;;;;;4970003;28;20665;-67
2022/08/16 11:02:19;;;;;;;10.90;7.57;;;26.10;99.90;;;;;;5002256;28;20132;-68
2022/08/16 11:04:45;;;;;;;9.15;7.63;;;26.30;99.90;;;;;;5006336;28;20124;-67
2022/08/16 11:07:11;;;;;;;11.35;7.32;;;26.30;99.90;;;;;;4989892;28;20060;-67
2022/08/16 11:09:37;;;;;;;11.55;8.50;;;26.60;99.90;;;;;;4986279;28;20049;-68
2022/08/16 11:12:04;;;;;;;10.23;8.35;;;26.60;99.90;;;;;;5005232;28;20454;-68
2022/08/16 11:14:31;;;;;;;9.35;7.03;;;26.50;99.90;;;;;;5005018;28;20436;-67
2022/08/16 11:16:58;;;;;;;11.20;7.88;;;26.60;99.90;;;;;;4971131;28;20424;-69
2022/08/16 11:19:24;;;;;;;13.10;9.93;;;26.80;99.90;;;;;;5005236;28;21602;-68
2022/08/16 11:21:50;;;;;;;11.80;8.27;;;26.60;99.90;;;;;;4990847;28;20142;-67
2022/08/16 11:24:16;;;;;;;10.13;7.22;;;26.60;99.90;;;;;;5007717;28;20563;-66
2022/08/16 11:26:41;;;;;;;9.98;7.18;;;26.90;99.90;;;;;;4995076;28;20052;-67
2022/08/16 11:29:08;;;;;;;9.68;6.97;;;27.10;99.90;;;;;;4989037;28;20483;-68
2022/08/16 11:31:34;;;;;;;12.98;8.45;;;27.10;99.90;;;;;;4991281;28;20049;-68
2022/08/16 11:34:00;;;;;;;7.65;6.70;;;27.10;99.90;;;;;;4984747;28;20114;-68
2022/08/16 11:36:25;;;;;;;10.48;8.23;;;27.00;99.90;;;;;;4963574;28;20560;-68
2022/08/16 11:38:51;;;;;;;15.80;11.45;;;27.00;99.90;;;;;;5004717;28;20069;-68
2022/08/16 11:41:17;;;;;;;17.30;13.07;;;26.70;99.90;;;;;;4990870;28;20053;-68
2022/08/16 11:43:43;;;;;;;12.48;8.40;;;26.50;99.90;;;;;;5008691;28;20061;-70
2022/08/16 11:46:12;;;;;;;13.70;10.05;;;26.60;99.90;;;;;;5004584;28;20187;-70
2022/08/16 11:48:39;;;;;;;11.25;8.63;;;26.90;99.90;;;;;;5002781;28;20057;-68
2022/08/16 11:51:05;;;;;;;14.48;9.98;;;27.10;99.90;;;;;;5007936;28;20536;-68
2022/08/16 11:53:32;;;;;;;12.65;8.63;;;26.80;99.90;;;;;;5009567;28;20111;-68
2022/08/16 11:55:58;;;;;;;10.40;7.38;;;27.00;99.90;;;;;;4991914;28;20077;-68
2022/08/16 11:58:26;;;;;;;18.38;11.70;;;27.00;99.90;;;;;;4973790;28;20085;-68
2022/08/16 12:00:53;;;;;;;12.32;9.50;;;27.20;99.90;;;;;;5009274;28;20559;-68
2022/08/16 12:03:22;;;;;;;14.77;11.00;;;27.20;99.90;;;;;;5005791;28;20677;-70
2022/08/16 12:05:47;;;;;;;20.45;10.10;;;27.10;99.90;;;;;;5009154;28;20057;-69
2022/08/16 12:08:14;;;;;;;19.23;10.07;;;27.10;99.90;;;;;;4993950;28;20053;-70
2022/08/16 12:10:41;;;;;;;16.40;11.05;;;27.10;99.90;;;;;;4989874;28;20049;-69
2022/08/16 12:13:09;;;;;;;13.98;10.07;;;27.10;99.90;;;;;;5008111;28;20072;-69
2022/08/16 12:15:35;;;;;;;15.75;11.20;;;27.10;99.90;;;;;;5007813;28;20078;-68
2022/08/16 12:18:01;;;;;;;11.85;8.43;;;27.10;99.90;;;;;;4974765;28;20050;-66
2022/08/16 12:20:31;;;;;;;16.23;9.13;;;27.00;99.90;;;;;;4990230;28;20092;-66
2022/08/16 12:22:57;;;;;;;12.85;8.18;;;26.90;99.90;;;;;;5007864;28;20076;-66
2022/08/16 12:25:27;;;;;;;11.57;8.85;;;26.90;99.90;;;;;;5009109;28;20132;-66
2022/08/16 12:27:54;;;;;;;14.13;10.95;;;26.70;99.90;;;;;;4973462;28;20052;-67
2022/08/16 12:30:27;;;;;;;17.23;11.30;;;26.60;99.90;;;;;;4989157;28;20496;-69